x

East Gulf - 208 Mn West Of Naples, Fl (42003) Wave Buoy

8:50pm - Mon 20th Oct 2014 All times are EDT. -4 hours from GMT.

  • Sig Wave height 1.6ft
  • Swell Direction
  • Peak Period 5s
  • Average Period 4s
  • Wind
    9mph, 11mph gusts
  • Sea Temp 83°f
  • Air Temp 80°f
  • Sea Pressure 1014.4mb
  • East Gulf - 208 Mn West Of Naples, Fl
  • East Gulf - 208 Mn West Of Naples, Fl

More Historic Weather Station data

Upgrade to MSW Pro to gain access to the past 30 days of data for over 8000 Wavebouys and Weather Stations around the globe.

Join Pro

Comparision Forecast

View Surf forecast
   
Mon 10/20 8:50pm 1.6ft 5s 4s 9 11 mph 1014.4mb 83f 80f
7:50pm 1.6ft 5s 5s 7 9 mph 1014.1mb 83f 80f
6:50pm 1.6ft 5s 5s 4 7 mph 1013.8mb 83f 80f
5:50pm 1.6ft 5s 5s 4 7 mph 1013.6mb 83f 80f
4:50pm 1.6ft 6s 5s 4 7 mph 1013.5mb 83f 81f
3:50pm 2ft 5s 5s 4 7 mph 1014mb 83f 81f
2:50pm 2.5ft 6s 5s 4 7 mph 1014.7mb 83f 81f
12:50pm 2.5ft 6s 5s 9 11 mph 1015.8mb 83f 81f
11:50am 2.5ft 6s 5s 11 13 mph 1016.3mb 83f 81f
10:50am 2.5ft 6s 5s 11 13 mph 1016.5mb 83f 80f
9:50am 3ft 6s 5s 13 16 mph 1016.3mb 83f 80f
8:50am 3ft 6s 6s 11 16 mph 1015.5mb 83f 80f
7:50am 3ft 6s 6s 11 13 mph 1015.5mb 83f 80f
6:50am 2.5ft 6s 6s 11 13 mph 1015.3mb 83f 80f
5:50am 2.5ft 6s 5s 11 13 mph 1014.9mb 83f 79f
4:50am 2ft 5s 5s 11 18 mph 1015mb 83f 79f
3:50am 1.6ft 5s 5s 11 13 mph 1015.5mb 83f 79f
2:50am 1.6ft 5s 5s 11 16 mph 1015.9mb 83f 79f
1:50am 1.3ft 5s 5s 11 16 mph 1016.6mb 83f 80f
Sun 10/19 10:50pm 1.3ft 19s 5s 7 11 mph 1016.7mb 83f 79f
9:50pm 1ft 5s 4s 11 16 mph 1016.6mb 83f 79f
8:50pm 1.3ft 24s 5s 9 16 mph 1016mb 83f 79f
7:50pm 1ft 5s 4s 9 11 mph 1015.7mb 83f 79f
6:50pm 1ft 5s 4s 9 13 mph 1015.5mb 83f 79f
5:50pm 1ft 5s 5s 7 9 mph 1015.2mb 83f 79f
4:50pm 1ft 5s 4s 9 11 mph 1015.5mb 83f 79f
3:50pm 1ft 5s 4s 7 11 mph 1015.7mb 83f 79f
2:50pm 1ft 5s 5s 7 11 mph 1016mb 83f 79f
1:50pm 1ft 5s 5s 7 11 mph 1016.5mb 83f 79f
12:50pm 1ft 5s 4s 7 9 mph 1017.2mb 83f 79f
11:50am 1ft 5s 5s 9 11 mph 1017.2mb 83f 79f
10:50am 1ft 13s 5s 9 13 mph 1017.1mb 83f 79f
9:50am 1ft 14s 5s 7 11 mph 1016.8mb 83f 79f
8:50am 1ft 13s 5s 11 13 mph 1016mb 83f 79f
7:50am 1ft 17s 7s 11 16 mph 1015.6mb 83f 79f
6:50am 1.3ft 19s 7s 9 11 mph 1015.5mb 83f 78f
5:50am 1ft 16s 6s 9 13 mph 1015.4mb 83f 78f
4:50am 1ft 16s 6s 7 9 mph 1015.5mb 83f 78f
3:50am 1ft 19s 7s 9 13 mph 1015.9mb 83f 78f
2:50am 1ft 19s 6s 9 11 mph 1016.3mb 83f 78f
1:50am 0.7ft  -  5s 7 11 mph 1016.3mb 83f 78f
12:50am 0.7ft  -  5s 7 11 mph 1016.7mb 83f 78f
Sat 10/18 11:50pm 0.7ft  -  4s 7 9 mph 1016.7mb 83f 78f
10:50pm 0.7ft  -  4s 7 9 mph 1016.3mb 83f 78f
9:50pm 0.7ft  -  4s 4 9 mph 1015.9mb 83f 78f
8:50pm 0.7ft  -  4s 7 11 mph 1015.4mb 83f 78f
7:50pm 1ft 13s 4s 9 11 mph 1014.9mb 83f 78f
6:50pm 1ft 19s 6s 7 11 mph 1014.6mb 83f 78f
5:50pm 0.7ft  -  4s 9 13 mph 1014.5mb 83f 78f
4:50pm 0.7ft  -  4s 9 11 mph 1014.5mb 83f 78f
3:50pm 0.7ft  -  4s 9 13 mph 1014.9mb 83f 78f
2:50pm 0.7ft  -  4s 9 13 mph 1015.4mb 83f 78f
1:50pm 0.7ft  -  5s 9 13 mph 1016mb 84f 78f
12:50pm 0.7ft  -  5s 7 11 mph 1016.7mb 83f 78f
11:50am 0.7ft  -  5s 7 9 mph 1016.9mb 84f 78f
10:50am 0.7ft  -  5s 7 11 mph 1017.1mb 83f 78f
9:50am 0.7ft  -  5s 7 9 mph 1016.8mb 83f 78f
8:50am 0.7ft  -  5s 4 9 mph 1016.1mb 83f 78f
7:50am 1ft 5s 5s 9 11 mph 1015.6mb 83f 78f
6:50am 1ft 5s 5s 4 7 mph 1015.3mb 83f 78f
5:50am 1ft 5s 5s 7 9 mph 1015mb 83f 78f
4:50am 1ft 5s 5s 7 9 mph 1014.8mb 84f 79f
3:50am 1ft 5s 5s 2 4 mph 1015mb 84f 78f
2:50am 1ft 5s 5s 4 7 mph 1015.4mb 84f 79f
1:50am 1ft 5s 5s 2
mph
1015.7mb 84f 78f
12:50am 1ft 5s 5s 4 7 mph 1016mb 84f 79f
Fri 10/17 11:50pm 1ft 5s 5s 7 9 mph 1016mb 84f 79f
10:50pm 1ft 5s 5s 7 9 mph 1016mb 84f 78f
9:50pm 1ft 5s 5s 7 11 mph 1015.9mb 84f 78f
8:50pm 1ft 5s 5s 7 9 mph 1015.4mb 84f 78f
7:50pm 1.3ft 6s 5s 7 11 mph 1015mb 84f 78f
6:50pm 1.3ft 6s 5s 9 13 mph 1014.9mb 84f 78f
5:50pm 1.3ft 5s 5s 7 9 mph 1015.2mb 85f 78f
4:50pm 1.3ft 6s 5s 9 11 mph 1015.2mb 85f 78f
3:50pm 1.3ft 6s 5s 4 9 mph 1015.2mb 85f 78f
2:50pm 1.3ft 6s 5s 4 9 mph 1015.6mb 85f 78f
1:50pm 1.3ft 6s 5s 2 7 mph 1016.2mb 85f 78f
12:50pm 1.3ft 6s 5s 2
mph
1017.2mb 84f 78f
11:50am 1.6ft 6s 5s 2 7 mph 1017.5mb 84f 78f
10:50am 1.6ft 6s 5s 4 7 mph 1017.4mb 84f 78f
9:50am 1.3ft 6s 5s 2 4 mph 1017mb 84f 78f
8:50am 1.6ft 6s 5s 2 4 mph 1016.3mb 83f 78f
7:50am 1.6ft 6s 5s 2 7 mph 1015.7mb 83f 77f
6:50am 1.6ft 6s 5s 2 4 mph 1015.4mb 83f 77f
5:50am 1.6ft 6s 5s 4 7 mph 1014.7mb 84f 77f
4:50am 1.6ft 6s 5s  -  4 mph 1014.6mb 84f 77f
3:50am 2ft 6s 5s 2 4 mph 1014.9mb 84f 77f
2:50am 2ft 6s 4s 4 11 mph 1015.2mb 84f 77f
1:50am 2.5ft 6s 5s 7 11 mph 1015.4mb 84f 77f